sensor_id;sensor_type;location;lat;lon;timestamp;temperature;humidity
40556;DHT22;26250;45.422;11.100;2022-08-25T00:00:10;24.80;76.10
40556;DHT22;26250;45.422;11.100;2022-08-25T00:02:37;24.80;76.20
40556;DHT22;26250;45.422;11.100;2022-08-25T00:05:04;24.70;76.40
40556;DHT22;26250;45.422;11.100;2022-08-25T00:07:33;24.70;76.50
40556;DHT22;26250;45.422;11.100;2022-08-25T00:10:00;24.70;76.20
40556;DHT22;26250;45.422;11.100;2022-08-25T00:12:27;24.70;75.80
40556;DHT22;26250;45.422;11.100;2022-08-25T00:14:54;24.80;75.30
40556;DHT22;26250;45.422;11.100;2022-08-25T00:17:21;24.80;75.00
40556;DHT22;26250;45.422;11.100;2022-08-25T00:19:48;24.80;75.00
40556;DHT22;26250;45.422;11.100;2022-08-25T00:22:15;24.90;74.90
40556;DHT22;26250;45.422;11.100;2022-08-25T00:24:42;24.90;74.80
40556;DHT22;26250;45.422;11.100;2022-08-25T00:27:09;24.70;75.20
40556;DHT22;26250;45.422;11.100;2022-08-25T00:29:37;24.60;75.70
40556;DHT22;26250;45.422;11.100;2022-08-25T00:32:05;24.60;76.20
40556;DHT22;26250;45.422;11.100;2022-08-25T00:34:35;24.60;75.70
40556;DHT22;26250;45.422;11.100;2022-08-25T00:37:05;24.50;76.00
40556;DHT22;26250;45.422;11.100;2022-08-25T00:39:37;24.50;75.50
40556;DHT22;26250;45.422;11.100;2022-08-25T00:42:05;24.60;75.10
40556;DHT22;26250;45.422;11.100;2022-08-25T00:44:42;24.70;74.70
40556;DHT22;26250;45.422;11.100;2022-08-25T00:47:10;24.60;74.70
40556;DHT22;26250;45.422;11.100;2022-08-25T00:52:11;24.60;74.70
40556;DHT22;26250;45.422;11.100;2022-08-25T00:54:40;24.60;74.80
40556;DHT22;26250;45.422;11.100;2022-08-25T00:57:10;24.70;75.00
40556;DHT22;26250;45.422;11.100;2022-08-25T00:59:39;24.60;75.20
40556;DHT22;26250;45.422;11.100;2022-08-25T01:02:09;24.60;75.40
40556;DHT22;26250;45.422;11.100;2022-08-25T01:04:40;24.50;75.70
40556;DHT22;26250;45.422;11.100;2022-08-25T01:07:17;24.50;75.80
40556;DHT22;26250;45.422;11.100;2022-08-25T01:09:46;24.50;75.60
40556;DHT22;26250;45.422;11.100;2022-08-25T01:12:14;24.60;75.50
40556;DHT22;26250;45.422;11.100;2022-08-25T01:14:42;24.60;75.30
40556;DHT22;26250;45.422;11.100;2022-08-25T01:17:12;24.50;76.00
40556;DHT22;26250;45.422;11.100;2022-08-25T01:19:39;24.40;76.30
40556;DHT22;26250;45.422;11.100;2022-08-25T01:22:06;24.60;77.30
40556;DHT22;26250;45.422;11.100;2022-08-25T01:24:46;24.60;77.00
40556;DHT22;26250;45.422;11.100;2022-08-25T01:27:16;24.70;77.00
40556;DHT22;26250;45.422;11.100;2022-08-25T01:29:43;24.60;77.20
40556;DHT22;26250;45.422;11.100;2022-08-25T01:32:11;24.50;78.20
40556;DHT22;26250;45.422;11.100;2022-08-25T01:34:42;24.40;76.60
40556;DHT22;26250;45.422;11.100;2022-08-25T01:37:11;24.40;76.70
40556;DHT22;26250;45.422;11.100;2022-08-25T01:39:40;24.40;77.60
40556;DHT22;26250;45.422;11.100;2022-08-25T01:42:46;24.50;78.70
40556;DHT22;26250;45.422;11.100;2022-08-25T01:45:19;24.50;78.10
40556;DHT22;26250;45.422;11.100;2022-08-25T01:47:46;24.50;77.50
40556;DHT22;26250;45.422;11.100;2022-08-25T01:50:13;24.50;77.10
40556;DHT22;26250;45.422;11.100;2022-08-25T01:53:10;24.30;78.80
40556;DHT22;26250;45.422;11.100;2022-08-25T01:55:35;24.30;78.60
40556;DHT22;26250;45.422;11.100;2022-08-25T01:58:32;24.20;78.80
40556;DHT22;26250;45.422;11.100;2022-08-25T02:01:02;24.30;79.00
40556;DHT22;26250;45.422;11.100;2022-08-25T02:03:29;24.40;79.10
40556;DHT22;26250;45.422;11.100;2022-08-25T02:06:00;24.40;79.10
40556;DHT22;26250;45.422;11.100;2022-08-25T02:08:30;24.40;78.90
40556;DHT22;26250;45.422;11.100;2022-08-25T02:10:59;24.40;79.00
40556;DHT22;26250;45.422;11.100;2022-08-25T02:13:26;24.40;79.30
40556;DHT22;26250;45.422;11.100;2022-08-25T02:15:59;24.30;80.00
40556;DHT22;26250;45.422;11.100;2022-08-25T02:18:27;24.20;80.10
40556;DHT22;26250;45.422;11.100;2022-08-25T02:20:54;24.20;80.60
40556;DHT22;26250;45.422;11.100;2022-08-25T02:23:21;24.10;80.50
40556;DHT22;26250;45.422;11.100;2022-08-25T02:25:48;24.00;80.70
40556;DHT22;26250;45.422;11.100;2022-08-25T02:28:15;24.10;81.20
40556;DHT22;26250;45.422;11.100;2022-08-25T02:30:43;24.10;80.80
40556;DHT22;26250;45.422;11.100;2022-08-25T02:33:10;24.20;80.90
40556;DHT22;26250;45.422;11.100;2022-08-25T02:35:37;24.00;81.70
40556;DHT22;26250;45.422;11.100;2022-08-25T02:38:05;23.90;81.90
40556;DHT22;26250;45.422;11.100;2022-08-25T02:40:33;23.90;81.70
40556;DHT22;26250;45.422;11.100;2022-08-25T02:43:00;24.00;81.10
40556;DHT22;26250;45.422;11.100;2022-08-25T02:45:28;24.00;81.00
40556;DHT22;26250;45.422;11.100;2022-08-25T02:47:55;24.00;81.20
40556;DHT22;26250;45.422;11.100;2022-08-25T02:50:22;24.00;81.30
40556;DHT22;26250;45.422;11.100;2022-08-25T02:52:51;24.10;80.90
40556;DHT22;26250;45.422;11.100;2022-08-25T02:55:18;24.00;80.80
40556;DHT22;26250;45.422;11.100;2022-08-25T02:57:46;24.00;80.80
40556;DHT22;26250;45.422;11.100;2022-08-25T03:00:14;24.00;81.00
40556;DHT22;26250;45.422;11.100;2022-08-25T03:02:43;24.00;81.10
40556;DHT22;26250;45.422;11.100;2022-08-25T03:05:11;24.00;81.00
40556;DHT22;26250;45.422;11.100;2022-08-25T03:07:44;24.00;81.10
40556;DHT22;26250;45.422;11.100;2022-08-25T03:10:14;24.00;81.20
40556;DHT22;26250;45.422;11.100;2022-08-25T03:12:41;24.00;81.10
40556;DHT22;26250;45.422;11.100;2022-08-25T03:15:13;24.00;81.50
40556;DHT22;26250;45.422;11.100;2022-08-25T03:17:45;24.00;81.80
40556;DHT22;26250;45.422;11.100;2022-08-25T03:20:12;23.80;82.20
40556;DHT22;26250;45.422;11.100;2022-08-25T03:22:40;23.80;82.10
40556;DHT22;26250;45.422;11.100;2022-08-25T03:25:07;23.80;82.30
40556;DHT22;26250;45.422;11.100;2022-08-25T03:27:52;23.80;82.40
40556;DHT22;26250;45.422;11.100;2022-08-25T03:30:20;23.80;82.50
40556;DHT22;26250;45.422;11.100;2022-08-25T03:32:47;23.80;82.40
40556;DHT22;26250;45.422;11.100;2022-08-25T03:35:14;23.70;82.40
40556;DHT22;26250;45.422;11.100;2022-08-25T03:37:41;23.50;83.10
40556;DHT22;26250;45.422;11.100;2022-08-25T03:40:11;23.30;83.60
40556;DHT22;26250;45.422;11.100;2022-08-25T03:42:44;23.40;83.60
40556;DHT22;26250;45.422;11.100;2022-08-25T03:45:13;23.30;83.60
40556;DHT22;26250;45.422;11.100;2022-08-25T03:47:45;23.20;84.10
40556;DHT22;26250;45.422;11.100;2022-08-25T03:50:13;23.20;84.10
40556;DHT22;26250;45.422;11.100;2022-08-25T03:52:43;23.20;83.80
40556;DHT22;26250;45.422;11.100;2022-08-25T03:55:12;23.20;83.50
40556;DHT22;26250;45.422;11.100;2022-08-25T03:57:41;23.30;83.30
40556;DHT22;26250;45.422;11.100;2022-08-25T04:00:09;23.30;83.10
40556;DHT22;26250;45.422;11.100;2022-08-25T04:02:38;23.30;83.30
40556;DHT22;26250;45.422;11.100;2022-08-25T04:05:07;23.30;83.20
40556;DHT22;26250;45.422;11.100;2022-08-25T04:07:34;23.20;83.60
40556;DHT22;26250;45.422;11.100;2022-08-25T04:10:02;23.20;83.70
40556;DHT22;26250;45.422;11.100;2022-08-25T04:12:29;23.40;83.40
40556;DHT22;26250;45.422;11.100;2022-08-25T04:14:57;23.50;83.00
40556;DHT22;26250;45.422;11.100;2022-08-25T04:17:27;23.50;83.00
40556;DHT22;26250;45.422;11.100;2022-08-25T04:19:54;23.40;83.50
40556;DHT22;26250;45.422;11.100;2022-08-25T04:22:21;23.50;83.60
40556;DHT22;26250;45.422;11.100;2022-08-25T04:24:48;23.40;83.90
40556;DHT22;26250;45.422;11.100;2022-08-25T04:27:15;23.40;84.10
40556;DHT22;26250;45.422;11.100;2022-08-25T04:29:42;23.40;83.80
40556;DHT22;26250;45.422;11.100;2022-08-25T04:32:09;23.40;84.30
40556;DHT22;26250;45.422;11.100;2022-08-25T04:34:36;23.20;85.00
40556;DHT22;26250;45.422;11.100;2022-08-25T04:37:04;23.10;85.00
40556;DHT22;26250;45.422;11.100;2022-08-25T04:39:33;23.20;84.80
40556;DHT22;26250;45.422;11.100;2022-08-25T04:42:01;23.30;84.60
40556;DHT22;26250;45.422;11.100;2022-08-25T04:44:29;23.30;84.60
40556;DHT22;26250;45.422;11.100;2022-08-25T04:46:56;23.20;84.70
40556;DHT22;26250;45.422;11.100;2022-08-25T04:49:24;23.30;84.50
40556;DHT22;26250;45.422;11.100;2022-08-25T04:51:51;23.40;84.60
40556;DHT22;26250;45.422;11.100;2022-08-25T04:54:18;23.40;84.40
40556;DHT22;26250;45.422;11.100;2022-08-25T04:56:49;23.40;84.10
40556;DHT22;26250;45.422;11.100;2022-08-25T04:59:23;23.50;84.00
40556;DHT22;26250;45.422;11.100;2022-08-25T05:01:57;23.50;84.30
40556;DHT22;26250;45.422;11.100;2022-08-25T05:04:28;23.50;84.20
40556;DHT22;26250;45.422;11.100;2022-08-25T05:06:55;23.50;84.60
40556;DHT22;26250;45.422;11.100;2022-08-25T05:09:23;23.40;84.40
40556;DHT22;26250;45.422;11.100;2022-08-25T05:11:51;23.50;84.30
40556;DHT22;26250;45.422;11.100;2022-08-25T05:14:19;23.50;84.30
40556;DHT22;26250;45.422;11.100;2022-08-25T05:16:55;23.60;84.20
40556;DHT22;26250;45.422;11.100;2022-08-25T05:19:23;23.80;83.60
40556;DHT22;26250;45.422;11.100;2022-08-25T05:21:51;24.20;82.10
40556;DHT22;26250;45.422;11.100;2022-08-25T05:24:20;24.50;81.00
40556;DHT22;26250;45.422;11.100;2022-08-25T05:26:48;24.80;79.80
40556;DHT22;26250;45.422;11.100;2022-08-25T05:29:15;25.10;78.50
40556;DHT22;26250;45.422;11.100;2022-08-25T05:31:42;25.50;77.60
40556;DHT22;26250;45.422;11.100;2022-08-25T05:34:16;25.70;76.60
40556;DHT22;26250;45.422;11.100;2022-08-25T05:36:44;25.90;76.70
40556;DHT22;26250;45.422;11.100;2022-08-25T05:39:12;25.80;77.70
40556;DHT22;26250;45.422;11.100;2022-08-25T05:41:39;25.80;77.70
40556;DHT22;26250;45.422;11.100;2022-08-25T05:44:06;25.90;77.80
40556;DHT22;26250;45.422;11.100;2022-08-25T05:46:33;26.10;76.80
40556;DHT22;26250;45.422;11.100;2022-08-25T05:49:02;26.40;75.40
40556;DHT22;26250;45.422;11.100;2022-08-25T05:51:29;26.70;74.50
40556;DHT22;26250;45.422;11.100;2022-08-25T05:53:56;26.70;75.40
40556;DHT22;26250;45.422;11.100;2022-08-25T05:56:23;26.80;75.60
40556;DHT22;26250;45.422;11.100;2022-08-25T05:58:52;26.90;75.70
40556;DHT22;26250;45.422;11.100;2022-08-25T06:01:25;27.00;74.70
40556;DHT22;26250;45.422;11.100;2022-08-25T06:04:12;27.20;72.70
40556;DHT22;26250;45.422;11.100;2022-08-25T06:06:39;27.10;73.00
40556;DHT22;26250;45.422;11.100;2022-08-25T06:09:07;27.00;73.40
40556;DHT22;26250;45.422;11.100;2022-08-25T06:11:37;27.10;72.00
40556;DHT22;26250;45.422;11.100;2022-08-25T06:14:07;27.20;72.30
40556;DHT22;26250;45.422;11.100;2022-08-25T06:16:34;27.40;71.30
40556;DHT22;26250;45.422;11.100;2022-08-25T06:19:02;27.60;70.30
40556;DHT22;26250;45.422;11.100;2022-08-25T06:21:28;27.70;69.60
40556;DHT22;26250;45.422;11.100;2022-08-25T06:23:56;27.90;68.50
40556;DHT22;26250;45.422;11.100;2022-08-25T06:26:23;27.90;68.30
40556;DHT22;26250;45.422;11.100;2022-08-25T06:28:51;28.00;67.70
40556;DHT22;26250;45.422;11.100;2022-08-25T06:31:19;27.90;68.10
40556;DHT22;26250;45.422;11.100;2022-08-25T06:33:48;27.90;68.70
40556;DHT22;26250;45.422;11.100;2022-08-25T06:36:16;28.00;69.10
40556;DHT22;26250;45.422;11.100;2022-08-25T06:38:45;28.20;68.70
40556;DHT22;26250;45.422;11.100;2022-08-25T06:41:12;28.40;68.10
40556;DHT22;26250;45.422;11.100;2022-08-25T06:43:40;28.50;68.20
40556;DHT22;26250;45.422;11.100;2022-08-25T06:46:17;28.40;68.10
40556;DHT22;26250;45.422;11.100;2022-08-25T06:48:44;28.50;67.60
40556;DHT22;26250;45.422;11.100;2022-08-25T06:51:14;28.50;68.30
40556;DHT22;26250;45.422;11.100;2022-08-25T06:53:42;28.60;68.30
40556;DHT22;26250;45.422;11.100;2022-08-25T06:56:09;28.80;68.40
40556;DHT22;26250;45.422;11.100;2022-08-25T06:58:37;28.90;68.30
40556;DHT22;26250;45.422;11.100;2022-08-25T07:03:46;28.90;68.10
40556;DHT22;26250;45.422;11.100;2022-08-25T07:06:14;28.90;68.10
40556;DHT22;26250;45.422;11.100;2022-08-25T07:08:45;29.00;67.60
40556;DHT22;26250;45.422;11.100;2022-08-25T07:11:12;29.20;67.50
40556;DHT22;26250;45.422;11.100;2022-08-25T07:13:44;29.20;67.40
40556;DHT22;26250;45.422;11.100;2022-08-25T07:16:12;29.40;67.60
40556;DHT22;26250;45.422;11.100;2022-08-25T07:18:41;29.50;67.00
40556;DHT22;26250;45.422;11.100;2022-08-25T07:21:10;29.60;66.40
40556;DHT22;26250;45.422;11.100;2022-08-25T07:23:39;29.60;66.00
40556;DHT22;26250;45.422;11.100;2022-08-25T07:26:15;29.60;66.00
40556;DHT22;26250;45.422;11.100;2022-08-25T07:29:09;29.60;65.80
40556;DHT22;26250;45.422;11.100;2022-08-25T07:31:37;29.70;64.50
40556;DHT22;26250;45.422;11.100;2022-08-25T07:34:05;29.90;63.30
40556;DHT22;26250;45.422;11.100;2022-08-25T07:36:53;29.90;63.40
40556;DHT22;26250;45.422;11.100;2022-08-25T07:39:21;30.00;63.40
40556;DHT22;26250;45.422;11.100;2022-08-25T07:41:48;30.00;63.00
40556;DHT22;26250;45.422;11.100;2022-08-25T07:44:20;30.00;63.10
40556;DHT22;26250;45.422;11.100;2022-08-25T07:46:47;30.00;62.60
40556;DHT22;26250;45.422;11.100;2022-08-25T07:49:20;30.00;62.10
40556;DHT22;26250;45.422;11.100;2022-08-25T07:51:50;30.00;61.90
40556;DHT22;26250;45.422;11.100;2022-08-25T07:54:33;30.10;62.00
40556;DHT22;26250;45.422;11.100;2022-08-25T07:57:05;30.10;61.90
40556;DHT22;26250;45.422;11.100;2022-08-25T07:59:33;30.10;61.30
40556;DHT22;26250;45.422;11.100;2022-08-25T08:02:10;30.10;61.90
40556;DHT22;26250;45.422;11.100;2022-08-25T08:04:48;30.10;61.80
40556;DHT22;26250;45.422;11.100;2022-08-25T08:07:23;30.10;61.30
40556;DHT22;26250;45.422;11.100;2022-08-25T08:10:10;30.10;61.20
40556;DHT22;26250;45.422;11.100;2022-08-25T08:12:57;30.10;61.30
40556;DHT22;26250;45.422;11.100;2022-08-25T08:15:24;30.00;61.80
40556;DHT22;26250;45.422;11.100;2022-08-25T08:17:56;29.90;62.10
40556;DHT22;26250;45.422;11.100;2022-08-25T08:20:24;29.70;61.10
40556;DHT22;26250;45.422;11.100;2022-08-25T08:22:51;29.70;61.60
40556;DHT22;26250;45.422;11.100;2022-08-25T08:25:18;29.60;62.00
40556;DHT22;26250;45.422;11.100;2022-08-25T08:27:53;29.50;62.80
40556;DHT22;26250;45.422;11.100;2022-08-25T08:30:21;29.50;63.10
40556;DHT22;26250;45.422;11.100;2022-08-25T08:32:53;29.50;63.30
40556;DHT22;26250;45.422;11.100;2022-08-25T08:35:39;29.50;63.10
40556;DHT22;26250;45.422;11.100;2022-08-25T08:38:07;29.40;63.70
40556;DHT22;26250;45.422;11.100;2022-08-25T08:40:59;29.50;63.50
40556;DHT22;26250;45.422;11.100;2022-08-25T08:43:53;29.50;63.30
40556;DHT22;26250;45.422;11.100;2022-08-25T08:46:22;29.50;63.60
40556;DHT22;26250;45.422;11.100;2022-08-25T08:49:22;29.50;63.80
40556;DHT22;26250;45.422;11.100;2022-08-25T08:51:58;29.50;63.50
40556;DHT22;26250;45.422;11.100;2022-08-25T08:54:33;29.50;63.60
40556;DHT22;26250;45.422;11.100;2022-08-25T08:59:48;29.50;64.10
40556;DHT22;26250;45.422;11.100;2022-08-25T09:05:21;29.40;64.50
40556;DHT22;26250;45.422;11.100;2022-08-25T09:07:54;29.40;63.10
40556;DHT22;26250;45.422;11.100;2022-08-25T09:10:25;29.40;63.00
40556;DHT22;26250;45.422;11.100;2022-08-25T09:13:30;29.40;63.20
40556;DHT22;26250;45.422;11.100;2022-08-25T09:30:09;29.50;64.50
40556;DHT22;26250;45.422;11.100;2022-08-25T09:32:56;29.60;64.40
40556;DHT22;26250;45.422;11.100;2022-08-25T09:35:38;29.70;64.50
40556;DHT22;26250;45.422;11.100;2022-08-25T09:38:11;29.70;64.30
40556;DHT22;26250;45.422;11.100;2022-08-25T09:40:41;29.60;62.70
40556;DHT22;26250;45.422;11.100;2022-08-25T09:46:13;29.60;63.20
40556;DHT22;26250;45.422;11.100;2022-08-25T09:48:54;29.60;62.70
40556;DHT22;26250;45.422;11.100;2022-08-25T09:51:33;29.70;62.80
40556;DHT22;26250;45.422;11.100;2022-08-25T09:56:56;29.70;60.60
40556;DHT22;26250;45.422;11.100;2022-08-25T09:59:29;29.60;60.60
40556;DHT22;26250;45.422;11.100;2022-08-25T10:02:27;29.70;61.60
40556;DHT22;26250;45.422;11.100;2022-08-25T10:04:55;29.70;61.00
40556;DHT22;26250;45.422;11.100;2022-08-25T10:07:35;29.80;60.70
40556;DHT22;26250;45.422;11.100;2022-08-25T10:10:26;29.80;61.00
40556;DHT22;26250;45.422;11.100;2022-08-25T10:12:58;29.90;60.30
40556;DHT22;26250;45.422;11.100;2022-08-25T10:15:33;29.90;61.10
40556;DHT22;26250;45.422;11.100;2022-08-25T10:23:35;30.00;60.00
40556;DHT22;26250;45.422;11.100;2022-08-25T10:26:09;30.10;59.60
40556;DHT22;26250;45.422;11.100;2022-08-25T10:39:45;30.10;58.60
40556;DHT22;26250;45.422;11.100;2022-08-25T10:42:32;30.10;59.50
40556;DHT22;26250;45.422;11.100;2022-08-25T10:45:10;30.10;60.10
40556;DHT22;26250;45.422;11.100;2022-08-25T10:48:09;30.20;60.10
40556;DHT22;26250;45.422;11.100;2022-08-25T10:50:57;30.20;60.70
40556;DHT22;26250;45.422;11.100;2022-08-25T10:53:49;30.20;60.50
40556;DHT22;26250;45.422;11.100;2022-08-25T10:56:34;30.20;60.00
40556;DHT22;26250;45.422;11.100;2022-08-25T11:02:29;30.20;60.50
40556;DHT22;26250;45.422;11.100;2022-08-25T11:05:05;30.40;60.50
40556;DHT22;26250;45.422;11.100;2022-08-25T11:07:40;30.50;60.40
40556;DHT22;26250;45.422;11.100;2022-08-25T11:10:18;30.50;60.00
40556;DHT22;26250;45.422;11.100;2022-08-25T11:12:56;30.50;60.30
40556;DHT22;26250;45.422;11.100;2022-08-25T11:18:58;30.50;58.00
40556;DHT22;26250;45.422;11.100;2022-08-25T11:26:57;30.60;59.20
40556;DHT22;26250;45.422;11.100;2022-08-25T11:29:28;30.60;59.70
40556;DHT22;26250;45.422;11.100;2022-08-25T11:31:59;30.70;58.60
40556;DHT22;26250;45.422;11.100;2022-08-25T11:34:31;30.70;59.00
40556;DHT22;26250;45.422;11.100;2022-08-25T11:37:04;30.70;58.10
40556;DHT22;26250;45.422;11.100;2022-08-25T11:42:34;30.70;58.90
40556;DHT22;26250;45.422;11.100;2022-08-25T11:48:09;30.70;58.70
40556;DHT22;26250;45.422;11.100;2022-08-25T11:53:42;30.80;58.00
40556;DHT22;26250;45.422;11.100;2022-08-25T11:56:34;30.80;58.30
40556;DHT22;26250;45.422;11.100;2022-08-25T11:59:05;30.80;58.70
40556;DHT22;26250;45.422;11.100;2022-08-25T12:04:36;30.90;58.10
40556;DHT22;26250;45.422;11.100;2022-08-25T12:07:17;31.00;59.10
40556;DHT22;26250;45.422;11.100;2022-08-25T12:18:41;31.10;58.30
40556;DHT22;26250;45.422;11.100;2022-08-25T12:36:56;31.10;57.60
40556;DHT22;26250;45.422;11.100;2022-08-25T12:39:29;31.20;57.10
40556;DHT22;26250;45.422;11.100;2022-08-25T12:42:01;31.20;57.20
40556;DHT22;26250;45.422;11.100;2022-08-25T12:44:37;31.30;57.30
40556;DHT22;26250;45.422;11.100;2022-08-25T12:47:29;31.40;57.20
40556;DHT22;26250;45.422;11.100;2022-08-25T12:53:13;31.30;57.00
40556;DHT22;26250;45.422;11.100;2022-08-25T12:55:47;31.30;57.20
40556;DHT22;26250;45.422;11.100;2022-08-25T12:58:15;31.40;57.40
40556;DHT22;26250;45.422;11.100;2022-08-25T13:14:43;31.60;58.10
40556;DHT22;26250;45.422;11.100;2022-08-25T13:17:11;31.50;57.90
40556;DHT22;26250;45.422;11.100;2022-08-25T13:19:49;31.50;58.20
40556;DHT22;26250;45.422;11.100;2022-08-25T13:22:17;31.40;58.20
40556;DHT22;26250;45.422;11.100;2022-08-25T13:24:48;31.40;57.90
40556;DHT22;26250;45.422;11.100;2022-08-25T13:27:23;31.50;57.60
40556;DHT22;26250;45.422;11.100;2022-08-25T13:29:56;31.60;58.20
40556;DHT22;26250;45.422;11.100;2022-08-25T13:32:30;31.60;58.70
40556;DHT22;26250;45.422;11.100;2022-08-25T13:35:16;31.60;58.70
40556;DHT22;26250;45.422;11.100;2022-08-25T13:37:46;31.60;57.70
40556;DHT22;26250;45.422;11.100;2022-08-25T13:42:57;31.60;57.80
40556;DHT22;26250;45.422;11.100;2022-08-25T13:45:29;31.60;57.50
40556;DHT22;26250;45.422;11.100;2022-08-25T13:47:58;31.70;57.70
40556;DHT22;26250;45.422;11.100;2022-08-25T13:53:23;31.80;57.50
40556;DHT22;26250;45.422;11.100;2022-08-25T13:55:53;31.80;57.00
40556;DHT22;26250;45.422;11.100;2022-08-25T13:58:33;31.80;57.10
40556;DHT22;26250;45.422;11.100;2022-08-25T14:01:32;31.80;56.50
40556;DHT22;26250;45.422;11.100;2022-08-25T14:04:43;31.90;57.20
40556;DHT22;26250;45.422;11.100;2022-08-25T14:14:59;31.80;56.70
40556;DHT22;26250;45.422;11.100;2022-08-25T14:17:30;31.90;57.10
40556;DHT22;26250;45.422;11.100;2022-08-25T14:20:16;31.90;56.20
40556;DHT22;26250;45.422;11.100;2022-08-25T14:22:43;31.90;56.60
40556;DHT22;26250;45.422;11.100;2022-08-25T14:25:11;32.00;56.40
40556;DHT22;26250;45.422;11.100;2022-08-25T14:27:43;32.00;56.60
40556;DHT22;26250;45.422;11.100;2022-08-25T14:30:34;31.90;56.70
40556;DHT22;26250;45.422;11.100;2022-08-25T14:33:02;31.90;57.20
40556;DHT22;26250;45.422;11.100;2022-08-25T14:35:30;31.90;57.20
40556;DHT22;26250;45.422;11.100;2022-08-25T14:37:57;31.90;57.00
40556;DHT22;26250;45.422;11.100;2022-08-25T14:40:24;31.90;56.60
40556;DHT22;26250;45.422;11.100;2022-08-25T14:42:55;31.90;56.70
40556;DHT22;26250;45.422;11.100;2022-08-25T14:45:22;31.90;56.80
40556;DHT22;26250;45.422;11.100;2022-08-25T14:47:49;32.00;56.20
40556;DHT22;26250;45.422;11.100;2022-08-25T14:50:23;32.00;56.60
40556;DHT22;26250;45.422;11.100;2022-08-25T14:52:50;32.00;56.50
40556;DHT22;26250;45.422;11.100;2022-08-25T14:55:18;32.00;56.40
40556;DHT22;26250;45.422;11.100;2022-08-25T14:57:58;32.00;56.20
40556;DHT22;26250;45.422;11.100;2022-08-25T15:00:25;32.00;56.30
40556;DHT22;26250;45.422;11.100;2022-08-25T15:02:53;32.00;56.50
40556;DHT22;26250;45.422;11.100;2022-08-25T15:05:23;31.90;56.40
40556;DHT22;26250;45.422;11.100;2022-08-25T15:07:54;31.90;56.50
40556;DHT22;26250;45.422;11.100;2022-08-25T15:10:41;31.90;56.40
40556;DHT22;26250;45.422;11.100;2022-08-25T15:13:09;31.90;56.40
40556;DHT22;26250;45.422;11.100;2022-08-25T15:15:39;32.00;56.40
40556;DHT22;26250;45.422;11.100;2022-08-25T15:18:18;31.90;56.10
40556;DHT22;26250;45.422;11.100;2022-08-25T15:20:46;32.00;56.20
40556;DHT22;26250;45.422;11.100;2022-08-25T15:23:17;31.90;55.80
40556;DHT22;26250;45.422;11.100;2022-08-25T15:25:45;31.90;55.60
40556;DHT22;26250;45.422;11.100;2022-08-25T15:28:14;31.90;56.10
40556;DHT22;26250;45.422;11.100;2022-08-25T15:30:43;31.90;56.30
40556;DHT22;26250;45.422;11.100;2022-08-25T15:33:15;31.90;56.30
40556;DHT22;26250;45.422;11.100;2022-08-25T15:35:43;32.00;56.10
40556;DHT22;26250;45.422;11.100;2022-08-25T15:38:11;32.00;56.00
40556;DHT22;26250;45.422;11.100;2022-08-25T15:40:38;32.00;56.10
40556;DHT22;26250;45.422;11.100;2022-08-25T15:43:05;32.00;55.70
40556;DHT22;26250;45.422;11.100;2022-08-25T15:45:33;31.90;55.50
40556;DHT22;26250;45.422;11.100;2022-08-25T15:48:03;31.90;55.10
40556;DHT22;26250;45.422;11.100;2022-08-25T15:50:35;32.00;55.90
40556;DHT22;26250;45.422;11.100;2022-08-25T15:53:04;32.00;56.10
40556;DHT22;26250;45.422;11.100;2022-08-25T15:55:38;32.00;56.00
40556;DHT22;26250;45.422;11.100;2022-08-25T15:58:05;32.00;55.70
40556;DHT22;26250;45.422;11.100;2022-08-25T16:00:34;31.90;55.60
40556;DHT22;26250;45.422;11.100;2022-08-25T16:03:03;31.90;56.50
40556;DHT22;26250;45.422;11.100;2022-08-25T16:05:35;31.90;55.90
40556;DHT22;26250;45.422;11.100;2022-08-25T16:08:03;31.90;55.80
40556;DHT22;26250;45.422;11.100;2022-08-25T16:10:37;31.90;56.40
40556;DHT22;26250;45.422;11.100;2022-08-25T16:13:06;31.80;55.90
40556;DHT22;26250;45.422;11.100;2022-08-25T16:15:34;31.90;55.80
40556;DHT22;26250;45.422;11.100;2022-08-25T16:18:04;31.80;55.80
40556;DHT22;26250;45.422;11.100;2022-08-25T16:20:34;31.80;55.70
40556;DHT22;26250;45.422;11.100;2022-08-25T16:23:02;31.80;55.80
40556;DHT22;26250;45.422;11.100;2022-08-25T16:25:30;31.80;55.60
40556;DHT22;26250;45.422;11.100;2022-08-25T16:27:57;31.70;55.50
40556;DHT22;26250;45.422;11.100;2022-08-25T16:30:27;31.70;56.00
40556;DHT22;26250;45.422;11.100;2022-08-25T16:32:54;31.80;55.60
40556;DHT22;26250;45.422;11.100;2022-08-25T16:35:21;31.70;55.90
40556;DHT22;26250;45.422;11.100;2022-08-25T16:37:49;31.70;55.60
40556;DHT22;26250;45.422;11.100;2022-08-25T16:40:16;31.70;55.50
40556;DHT22;26250;45.422;11.100;2022-08-25T16:42:47;31.70;55.60
40556;DHT22;26250;45.422;11.100;2022-08-25T16:45:14;31.70;55.50
40556;DHT22;26250;45.422;11.100;2022-08-25T16:47:41;31.70;55.70
40556;DHT22;26250;45.422;11.100;2022-08-25T16:50:09;31.70;56.00
40556;DHT22;26250;45.422;11.100;2022-08-25T16:52:38;31.70;56.50
40556;DHT22;26250;45.422;11.100;2022-08-25T16:55:26;31.70;58.00
40556;DHT22;26250;45.422;11.100;2022-08-25T16:58:05;31.60;55.70
40556;DHT22;26250;45.422;11.100;2022-08-25T17:00:35;31.60;55.50
40556;DHT22;26250;45.422;11.100;2022-08-25T17:03:03;31.50;55.50
40556;DHT22;26250;45.422;11.100;2022-08-25T17:05:32;31.50;56.10
40556;DHT22;26250;45.422;11.100;2022-08-25T17:08:04;31.50;55.90
40556;DHT22;26250;45.422;11.100;2022-08-25T17:11:10;31.50;55.90
40556;DHT22;26250;45.422;11.100;2022-08-25T17:13:40;31.50;55.90
40556;DHT22;26250;45.422;11.100;2022-08-25T17:16:11;31.50;56.30
40556;DHT22;26250;45.422;11.100;2022-08-25T17:18:41;31.40;56.70
40556;DHT22;26250;45.422;11.100;2022-08-25T17:21:11;31.40;56.10
40556;DHT22;26250;45.422;11.100;2022-08-25T17:23:50;31.40;55.90
40556;DHT22;26250;45.422;11.100;2022-08-25T17:26:18;31.30;55.80
40556;DHT22;26250;45.422;11.100;2022-08-25T17:28:53;31.30;55.90
40556;DHT22;26250;45.422;11.100;2022-08-25T17:31:21;31.30;55.70
40556;DHT22;26250;45.422;11.100;2022-08-25T17:33:50;31.30;55.80
40556;DHT22;26250;45.422;11.100;2022-08-25T17:36:18;31.30;56.20
40556;DHT22;26250;45.422;11.100;2022-08-25T17:38:53;31.30;56.10
40556;DHT22;26250;45.422;11.100;2022-08-25T17:41:20;31.20;56.60
40556;DHT22;26250;45.422;11.100;2022-08-25T17:43:49;31.20;57.10
40556;DHT22;26250;45.422;11.100;2022-08-25T17:46:16;31.20;56.70
40556;DHT22;26250;45.422;11.100;2022-08-25T17:48:44;31.10;57.10